Time;durP1;ratioP1;P1;durP2;ratioP2;P2;SDS_P1;SDS_P2;PMS_P1;PMS_P2;Temp;Humidity;BMP_temperature;BMP_pressure;BME280_temperature;BME280_humidity;BME280_pressure;Samples;Min_cycle;Max_cycle;Signal;HPM_P1;HPM_P2
2022/06/29 00:01:19;;;;;;;7.75;4.05;;;;;;;30.12;49.08;100079.59;4995081;28;20030;-69
2022/06/29 00:03:45;;;;;;;5.35;4.22;;;;;;;30.12;49.22;100084.16;4992787;28;20161;-69
2022/06/29 00:06:11;;;;;;;6.22;4.45;;;;;;;30.12;49.54;100092.22;5008839;28;20037;-69
2022/06/29 00:08:37;;;;;;;4.75;4.35;;;;;;;30.11;49.22;100093.31;5008612;28;20080;-70
2022/06/29 00:11:03;;;;;;;9.48;4.60;;;;;;;30.11;49.06;100083.34;4993996;28;20035;-69
2022/06/29 00:13:28;;;;;;;5.68;4.40;;;;;;;30.10;49.62;100073.69;4989359;28;20030;-69
2022/06/29 00:15:54;;;;;;;6.28;4.15;;;;;;;30.11;49.47;100098.66;4988024;28;20560;-68
2022/06/29 00:18:19;;;;;;;5.10;4.15;;;;;;;30.11;49.56;100093.31;5002788;28;20021;-68
2022/06/29 00:20:45;;;;;;;5.97;4.40;;;;;;;30.11;49.08;100090.63;5008659;28;20105;-69
2022/06/29 00:23:11;;;;;;;5.15;4.28;;;;;;;30.10;49.68;100092.50;4989854;28;20042;-69
2022/06/29 00:25:36;;;;;;;4.10;3.75;;;;;;;30.12;49.38;100102.97;4986999;28;20030;-68
2022/06/29 00:28:02;;;;;;;5.15;4.32;;;;;;;30.13;49.20;100089.25;4993759;28;20026;-69
2022/06/29 00:30:27;;;;;;;6.03;4.20;;;;;;;30.15;49.40;100083.59;5006921;28;20040;-68
2022/06/29 00:32:53;;;;;;;4.18;3.40;;;;;;;30.15;49.96;100062.91;5000731;28;20052;-68
2022/06/29 00:35:18;;;;;;;5.32;4.03;;;;;;;30.16;49.49;100052.97;5004959;28;20034;-68
2022/06/29 00:37:44;;;;;;;4.60;4.20;;;;;;;30.17;49.92;100033.06;5005728;28;20137;-68
2022/06/29 00:40:11;;;;;;;4.32;4.03;;;;;;;30.17;49.84;99998.94;5005779;28;20030;-69
2022/06/29 00:42:36;;;;;;;5.25;3.55;;;;;;;30.17;50.03;99996.25;4990253;28;20040;-69
2022/06/29 00:45:03;;;;;;;4.18;3.78;;;;;;;30.17;49.88;100025.00;4988506;28;20417;-69
2022/06/29 00:47:29;;;;;;;4.97;4.00;;;;;;;30.17;50.27;100009.69;4988851;28;20030;-69
2022/06/29 00:49:55;;;;;;;6.05;4.43;;;;;;;30.17;50.39;99992.78;4986555;28;20026;-69
2022/06/29 00:52:25;;;;;;;4.93;4.05;;;;;;;30.16;50.55;99988.47;4988655;28;20027;-68
2022/06/29 00:55:02;;;;;;;4.63;4.15;;;;;;;30.16;50.66;99988.47;4987892;28;20552;-68
2022/06/29 00:57:29;;;;;;;5.13;4.13;;;;;;;30.16;50.18;99988.47;4995075;28;20065;-68
2022/06/29 00:59:57;;;;;;;5.53;3.65;;;;;;;30.17;50.29;99992.78;4998823;28;20113;-68
2022/06/29 01:02:25;;;;;;;4.22;3.70;;;;;;;30.18;50.40;99989.00;4990219;28;20026;-69
2022/06/29 01:04:51;;;;;;;5.60;3.88;;;;;;;30.16;50.19;99981.22;4986590;28;20034;-68
2022/06/29 01:07:21;;;;;;;4.35;3.95;;;;;;;30.17;50.29;99984.72;4997250;28;20113;-69
2022/06/29 01:09:47;;;;;;;4.07;3.72;;;;;;;30.16;50.00;99983.13;5005114;28;20124;-68
2022/06/29 01:12:13;;;;;;;4.95;3.80;;;;;;;30.15;50.10;99982.31;5002064;28;20135;-68
2022/06/29 01:14:43;;;;;;;3.88;3.58;;;;;;;30.15;50.13;99978.81;4986860;28;20027;-68
2022/06/29 01:17:10;;;;;;;4.25;3.53;;;;;;;30.16;50.12;99980.44;4986745;28;20051;-69
2022/06/29 01:19:36;;;;;;;5.95;4.47;;;;;;;30.15;50.47;99990.38;4988713;28;20113;-68
2022/06/29 01:22:18;;;;;;;4.38;3.97;;;;;;;30.15;50.10;99984.19;4991788;28;20053;-69
2022/06/29 01:24:45;;;;;;;4.90;4.22;;;;;;;30.16;50.63;99983.13;4991758;28;20026;-69
2022/06/29 01:27:12;;;;;;;4.75;4.07;;;;;;;30.16;50.33;99983.13;4991346;28;20058;-69
2022/06/29 01:29:39;;;;;;;6.28;3.70;;;;;;;30.15;50.28;99976.13;4996645;28;20057;-69
2022/06/29 01:32:05;;;;;;;5.90;3.90;;;;;;;30.14;50.45;99979.91;5010373;28;20486;-69
2022/06/29 01:34:31;;;;;;;4.40;3.42;;;;;;;30.16;50.54;99967.78;5011785;28;20440;-69
2022/06/29 01:36:59;;;;;;;3.78;3.42;;;;;;;30.16;50.25;99973.16;4994021;28;20455;-68
2022/06/29 01:39:26;;;;;;;5.03;3.83;;;;;;;30.17;50.61;99973.97;4992084;28;20030;-69
2022/06/29 01:41:51;;;;;;;7.10;4.45;;;;;;;30.15;50.45;99957.34;4991967;28;20034;-68
2022/06/29 01:44:17;;;;;;;4.82;4.00;;;;;;;30.16;50.25;99964.31;4990029;28;20046;-68
2022/06/29 01:46:42;;;;;;;4.10;3.70;;;;;;;30.14;50.55;99964.59;4989679;28;20080;-68
2022/06/29 01:49:08;;;;;;;4.25;3.90;;;;;;;30.15;50.44;99957.34;5010298;28;20030;-69
2022/06/29 01:51:33;;;;;;;4.20;3.80;;;;;;;30.16;50.50;99964.31;5011434;28;20490;-69
2022/06/29 01:53:59;;;;;;;4.50;4.10;;;;;;;30.15;50.54;99968.06;5010008;28;20044;-69
2022/06/29 01:56:24;;;;;;;5.95;4.00;;;;;;;30.16;51.11;99965.09;5011410;28;20116;-68
2022/06/29 01:58:50;;;;;;;6.57;3.75;;;;;;;30.15;50.51;99954.66;4988870;28;20031;-68
2022/06/29 02:01:15;;;;;;;4.97;4.10;;;;;;;30.15;50.67;99951.97;4995641;28;20025;-69
2022/06/29 02:03:41;;;;;;;4.03;3.72;;;;;;;30.17;51.01;99957.84;5011370;28;20053;-69
2022/06/29 02:06:06;;;;;;;3.88;3.50;;;;;;;30.16;50.95;99953.56;5011319;28;20084;-69
2022/06/29 02:08:33;;;;;;;3.80;3.50;;;;;;;30.15;51.20;99952.75;4996266;28;20037;-69
2022/06/29 02:11:00;;;;;;;3.58;3.28;;;;;;;30.16;50.84;99946.31;4991488;28;20036;-68
2022/06/29 02:13:25;;;;;;;5.30;4.03;;;;;;;30.18;50.73;99943.34;4991470;28;20085;-69
2022/06/29 02:15:51;;;;;;;5.30;3.50;;;;;;;30.17;51.11;99937.16;5002116;28;20042;-68
2022/06/29 02:18:17;;;;;;;5.55;3.90;;;;;;;30.18;50.64;99932.59;5004499;28;20031;-69
2022/06/29 02:20:42;;;;;;;3.72;3.42;;;;;;;30.19;50.96;99936.88;4987013;28;20038;-68
2022/06/29 02:23:08;;;;;;;6.18;3.30;;;;;;;30.20;50.76;99925.03;5009660;28;20037;-69
2022/06/29 02:25:33;;;;;;;4.15;3.75;;;;;;;30.19;50.56;99935.00;5010790;28;20034;-68
2022/06/29 02:27:58;;;;;;;4.93;3.63;;;;;;;30.20;51.00;99938.47;5010774;28;20399;-69
2022/06/29 02:34:43;;;;;;;3.75;3.45;;;;;;;30.19;50.70;99934.19;4990468;28;20204;-68
2022/06/29 02:35:53;;;;;;;4.60;3.35;;;;;;;30.16;51.08;99913.25;5011017;28;20136;-69
2022/06/29 02:38:18;;;;;;;3.63;3.30;;;;;;;30.17;51.12;99909.50;5010755;28;20125;-68
2022/06/29 02:40:44;;;;;;;3.70;3.40;;;;;;;30.17;51.05;99914.88;4993662;28;20356;-68
2022/06/29 02:43:10;;;;;;;6.03;3.95;;;;;;;30.16;50.78;99924.81;4994925;28;20483;-68
2022/06/29 02:45:35;;;;;;;3.85;3.45;;;;;;;30.16;50.81;99926.69;5001164;28;20034;-68
2022/06/29 02:48:01;;;;;;;4.28;3.00;;;;;;;30.17;50.77;99925.63;5008931;28;20144;-69
2022/06/29 02:50:27;;;;;;;3.75;3.28;;;;;;;30.16;50.61;99924.00;5009366;28;20032;-69
2022/06/29 02:52:53;;;;;;;3.83;3.47;;;;;;;30.16;50.63;99932.88;5005645;28;20041;-68
2022/06/29 02:55:18;;;;;;;4.07;3.53;;;;;;;30.14;51.03;99916.25;4990789;28;20117;-68
2022/06/29 02:57:44;;;;;;;3.85;3.47;;;;;;;30.15;51.09;99906.28;5010418;28;20092;-70
2022/06/29 03:00:10;;;;;;;5.88;3.42;;;;;;;30.14;50.61;99905.50;5006395;28;20033;-68
2022/06/29 03:02:36;;;;;;;4.20;3.80;;;;;;;30.13;50.87;99901.22;5005179;28;20108;-69
2022/06/29 03:05:01;;;;;;;8.15;4.30;;;;;;;30.13;51.21;99903.88;5001882;28;20466;-68
2022/06/29 03:07:26;;;;;;;7.13;4.15;;;;;;;30.14;50.93;99904.69;5010088;28;20034;-68
2022/06/29 03:09:52;;;;;;;5.38;4.15;;;;;;;30.13;51.38;99903.09;5010314;28;20053;-69
2022/06/29 03:12:18;;;;;;;8.63;3.97;;;;;;;30.14;51.33;99894.75;5009662;28;20054;-67
2022/06/29 03:14:44;;;;;;;3.85;3.45;;;;;;;30.14;51.47;99897.44;5000465;28;20494;-68
2022/06/29 03:17:09;;;;;;;9.40;4.20;;;;;;;30.15;51.89;99908.97;4988461;28;20109;-68
2022/06/29 03:19:35;;;;;;;4.88;3.90;;;;;;;30.16;51.58;99907.91;4990490;28;20034;-68
2022/06/29 03:22:00;;;;;;;4.82;3.83;;;;;;;30.17;51.66;99915.66;4990045;28;20467;-68
2022/06/29 03:24:25;;;;;;;5.13;3.78;;;;;;;30.17;51.96;99912.19;4989405;28;20029;-69
2022/06/29 03:26:51;;;;;;;4.47;4.05;;;;;;;30.19;52.35;99907.31;5002695;28;20037;-68
2022/06/29 03:29:16;;;;;;;9.20;3.70;;;;;;;30.18;52.67;99903.84;5009611;28;20058;-68
2022/06/29 03:31:42;;;;;;;4.28;3.45;;;;;;;30.20;52.61;99900.84;5003548;28;20027;-68
2022/06/29 03:34:07;;;;;;;4.53;3.90;;;;;;;30.19;52.55;99891.19;4990084;28;20379;-68
2022/06/29 03:36:33;;;;;;;7.88;4.15;;;;;;;30.20;52.88;99887.44;4987781;28;20082;-69
2022/06/29 03:38:58;;;;;;;8.93;4.13;;;;;;;30.21;52.57;99886.34;4989949;28;20048;-68
2022/06/29 03:41:23;;;;;;;5.60;4.13;;;;;;;30.20;52.65;99893.59;4989620;28;20030;-68
2022/06/29 03:43:49;;;;;;;5.00;4.47;;;;;;;30.20;53.14;99892.81;4989292;28;20300;-68
2022/06/29 03:46:14;;;;;;;4.35;3.90;;;;;;;30.19;53.16;99891.19;4988890;28;20038;-68
2022/06/29 03:48:40;;;;;;;4.10;3.55;;;;;;;30.19;53.03;99891.19;4989837;28;20026;-68
2022/06/29 03:51:05;;;;;;;5.10;3.63;;;;;;;30.17;53.05;99888.00;4989721;28;20038;-68
2022/06/29 03:53:30;;;;;;;7.85;4.10;;;;;;;30.17;52.68;99890.69;4989979;28;20030;-69
2022/06/29 03:55:56;;;;;;;5.43;3.30;;;;;;;30.17;53.12;99888.00;4989605;28;20038;-68
2022/06/29 03:58:22;;;;;;;5.68;3.70;;;;;;;30.16;52.51;99891.78;4987562;28;20030;-68
2022/06/29 04:00:47;;;;;;;4.90;3.30;;;;;;;30.15;52.57;99887.50;4989335;28;20398;-69
2022/06/29 04:03:13;;;;;;;9.02;3.83;;;;;;;30.12;52.44;99878.13;4996649;28;20403;-69
2022/06/29 04:05:38;;;;;;;6.18;3.40;;;;;;;30.12;52.39;99885.38;5008966;28;20113;-69
2022/06/29 04:08:04;;;;;;;3.25;2.95;;;;;;;30.12;52.12;99898.81;4996886;28;20022;-70
2022/06/29 04:10:30;;;;;;;5.72;3.42;;;;;;;30.12;51.61;99906.88;4988894;28;20069;-68
2022/06/29 04:12:55;;;;;;;4.35;3.33;;;;;;;30.10;52.03;99907.16;4989462;28;20022;-68
2022/06/29 04:15:21;;;;;;;3.88;3.03;;;;;;;30.11;51.90;99918.69;4989479;28;20629;-68
2022/06/29 04:17:46;;;;;;;6.47;3.00;;;;;;;30.11;51.38;99918.69;4986105;28;20019;-68
2022/06/29 04:23:02;;;;;;;3.70;2.80;;;;;;;30.10;51.80;99928.63;4958001;28;20030;-68
2022/06/29 04:25:28;;;;;;;3.53;2.08;;;;;;;30.12;51.32;99922.97;5008446;28;20037;-69
2022/06/29 04:27:53;;;;;;;7.10;3.03;;;;;;;30.13;51.36;99911.16;5008939;28;20500;-69
2022/06/29 04:30:19;;;;;;;2.90;2.58;;;;;;;30.13;51.36;99898.53;4987165;28;20030;-69
2022/06/29 04:32:45;;;;;;;3.22;2.70;;;;;;;30.14;50.92;99884.00;4988917;28;20037;-68
2022/06/29 04:35:10;;;;;;;2.58;2.38;;;;;;;30.15;50.68;99877.53;4987951;28;20164;-68
2022/06/29 04:37:36;;;;;;;3.40;3.10;;;;;;;30.14;50.58;99873.25;4988615;28;20574;-68
2022/06/29 04:40:03;;;;;;;3.63;2.10;;;;;;;30.15;50.66;99880.22;4991077;28;20040;-68
2022/06/29 04:42:29;;;;;;;2.92;2.70;;;;;;;30.15;50.59;99896.34;5008481;28;20040;-68
2022/06/29 04:44:55;;;;;;;2.45;2.25;;;;;;;30.15;50.48;99920.53;5008314;28;20394;-67
2022/06/29 04:47:20;;;;;;;6.95;2.55;;;;;;;30.15;49.81;99933.16;5008305;28;20030;-68
2022/06/29 04:49:46;;;;;;;5.07;2.03;;;;;;;30.14;50.25;99943.09;4993702;28;20305;-69
2022/06/29 04:52:12;;;;;;;5.68;2.38;;;;;;;30.13;49.71;99944.19;4989026;28;20030;-69
2022/06/29 04:54:37;;;;;;;3.95;2.42;;;;;;;30.14;50.05;99947.69;4988489;28;20026;-69
2022/06/29 04:57:04;;;;;;;3.15;2.70;;;;;;;30.14;50.05;99947.69;4988404;28;20037;-69
2022/06/29 04:59:29;;;;;;;4.63;2.92;;;;;;;30.14;49.54;99942.31;4988716;28;20058;-69
2022/06/29 05:01:55;;;;;;;6.05;2.58;;;;;;;30.14;49.93;99953.03;4999192;28;20572;-68
2022/06/29 05:04:20;;;;;;;3.03;1.95;;;;;;;30.13;49.50;99940.69;5002999;28;20634;-69
2022/06/29 05:06:46;;;;;;;3.33;2.25;;;;;;;30.12;50.03;99952.53;4994971;28;20038;-69
2022/06/29 05:09:11;;;;;;;2.80;1.95;;;;;;;30.11;50.00;99954.41;4986930;28;20038;-69
2022/06/29 05:11:37;;;;;;;3.58;2.33;;;;;;;30.11;49.77;99950.94;4986773;28;20031;-69
2022/06/29 05:14:02;;;;;;;3.50;2.58;;;;;;;30.11;49.80;99950.94;4988351;28;20502;-69
2022/06/29 05:16:28;;;;;;;3.38;2.28;;;;;;;30.10;50.09;99957.38;4988396;28;20022;-69
2022/06/29 05:18:53;;;;;;;3.85;2.22;;;;;;;30.09;49.64;99959.28;4988352;28;20113;-69
2022/06/29 05:21:19;;;;;;;2.60;2.40;;;;;;;30.10;49.70;99963.56;4993350;28;20156;-69
2022/06/29 05:23:45;;;;;;;5.25;2.10;;;;;;;30.11;49.85;99965.16;4988462;28;20141;-69
2022/06/29 05:26:11;;;;;;;3.22;2.10;;;;;;;30.11;49.82;99957.09;4988430;28;20038;-68
2022/06/29 05:28:36;;;;;;;3.53;1.70;;;;;;;30.11;49.52;99961.69;4988385;28;20333;-68
2022/06/29 05:31:02;;;;;;;3.05;1.98;;;;;;;30.10;49.81;99962.75;4988159;28;20463;-69
2022/06/29 05:33:36;;;;;;;2.97;1.83;;;;;;;30.09;49.71;99961.97;4994657;28;20053;-69
2022/06/29 05:36:06;;;;;;;4.13;2.17;;;;;;;30.09;49.36;99966.53;4997175;28;20057;-69
2022/06/29 05:38:32;;;;;;;3.10;2.50;;;;;;;30.09;49.15;99977.28;4986252;28;20042;-69
2022/06/29 05:41:00;;;;;;;2.58;2.00;;;;;;;30.09;49.20;99971.91;4988039;28;20557;-69
2022/06/29 05:43:26;;;;;;;2.20;2.00;;;;;;;30.09;49.41;99972.72;4986128;28;20030;-69
2022/06/29 05:45:51;;;;;;;5.93;2.47;;;;;;;30.08;48.95;99984.53;4987236;28;20038;-69
2022/06/29 05:48:17;;;;;;;3.20;1.98;;;;;;;30.08;49.28;99981.03;4987799;28;20632;-68
2022/06/29 05:50:42;;;;;;;2.38;2.17;;;;;;;30.09;48.97;99988.03;4986108;28;20380;-69
2022/06/29 05:53:08;;;;;;;5.05;2.55;;;;;;;30.08;49.02;99987.22;4988145;28;20023;-68
2022/06/29 05:55:33;;;;;;;3.83;1.95;;;;;;;30.08;49.02;99989.91;4988218;28;20030;-69
2022/06/29 05:57:59;;;;;;;2.35;2.05;;;;;;;30.09;49.25;99993.38;4988230;28;20031;-69
2022/06/29 06:00:25;;;;;;;3.28;2.17;;;;;;;30.11;49.25;99991.22;4986144;28;20034;-69
2022/06/29 06:02:51;;;;;;;3.58;2.15;;;;;;;30.09;49.42;99990.72;4987810;28;20089;-68
2022/06/29 06:05:17;;;;;;;5.85;2.45;;;;;;;30.10;49.25;99995.78;4995975;28;20080;-68
2022/06/29 06:07:42;;;;;;;5.90;1.90;;;;;;;30.07;49.16;99991.00;4992115;28;20022;-69
2022/06/29 06:10:08;;;;;;;5.65;2.50;;;;;;;30.04;48.95;99997.72;4989617;28;20030;-69
2022/06/29 06:12:33;;;;;;;5.20;2.53;;;;;;;30.01;49.17;99998.28;4997496;28;20625;-70
2022/06/29 06:14:59;;;;;;;3.78;2.10;;;;;;;30.01;48.90;100005.56;5011014;28;20029;-69
2022/06/29 06:17:26;;;;;;;2.78;2.45;;;;;;;30.00;49.18;100002.06;5007335;28;20041;-71
2022/06/29 06:19:53;;;;;;;4.50;2.45;;;;;;;30.01;48.87;100003.66;4999542;28;20034;-70
2022/06/29 06:22:18;;;;;;;2.80;2.00;;;;;;;30.04;48.55;100010.34;4989293;28;20069;-69
2022/06/29 06:24:44;;;;;;;2.65;2.22;;;;;;;30.01;48.62;99998.28;5009049;28;20066;-70
2022/06/29 06:27:09;;;;;;;3.28;2.55;;;;;;;30.04;48.52;100003.09;5010825;28;20025;-69
2022/06/29 06:29:34;;;;;;;3.65;2.70;;;;;;;30.03;49.18;100000.69;5008480;28;20033;-69
2022/06/29 06:32:01;;;;;;;4.72;3.03;;;;;;;30.00;48.74;100002.06;4991950;28;20030;-70
2022/06/29 06:34:27;;;;;;;5.90;2.67;;;;;;;30.01;49.23;100000.97;4988777;28;20156;-69
2022/06/29 06:36:52;;;;;;;12.10;2.97;;;;;;;29.99;49.80;100000.47;4989848;28;20132;-70
2022/06/29 06:39:18;;;;;;;10.68;3.42;;;;;;;30.03;50.37;100001.50;4999320;28;20030;-69
2022/06/29 06:41:44;;;;;;;7.90;3.78;;;;;;;30.16;51.83;100004.59;4999022;28;20034;-69
2022/06/29 06:44:09;;;;;;;10.93;3.03;;;;;;;30.16;50.59;100010.78;4989926;28;20033;-68
2022/06/29 06:46:35;;;;;;;10.82;3.83;;;;;;;30.11;50.23;100004.66;4989080;28;20132;-69
2022/06/29 06:49:01;;;;;;;12.75;3.75;;;;;;;30.11;49.95;100016.19;5005121;28;20432;-71
2022/06/29 06:51:26;;;;;;;12.52;3.25;;;;;;;30.07;50.12;100011.69;5009194;28;20072;-68
2022/06/29 06:53:52;;;;;;;4.15;3.10;;;;;;;30.05;49.71;100011.97;4996864;28;20037;-70
2022/06/29 06:56:18;;;;;;;6.28;2.90;;;;;;;30.06;50.19;100007.38;4998643;28;20300;-69
2022/06/29 06:58:44;;;;;;;3.30;3.00;;;;;;;30.08;50.07;100014.09;4991093;28;20029;-68
2022/06/29 07:01:10;;;;;;;5.53;2.47;;;;;;;30.07;49.65;100011.69;4990987;28;20022;-68
2022/06/29 07:03:36;;;;;;;4.78;2.63;;;;;;;30.08;49.91;100018.66;4989411;28;20034;-68
2022/06/29 07:06:09;;;;;;;5.63;2.85;;;;;;;30.06;49.78;100015.44;4990862;28;20038;-69
2022/06/29 07:08:35;;;;;;;4.68;2.65;;;;;;;30.06;49.80;100016.25;4990523;28;20073;-69
2022/06/29 07:11:02;;;;;;;9.15;2.97;;;;;;;30.06;49.90;100020.81;4990396;28;20383;-69
2022/06/29 07:13:28;;;;;;;5.47;2.70;;;;;;;30.03;49.43;100014.94;4991497;28;20545;-69
2022/06/29 07:15:54;;;;;;;4.65;2.58;;;;;;;30.02;49.32;100023.28;4989190;28;20034;-70
2022/06/29 07:18:20;;;;;;;8.13;2.92;;;;;;;30.03;49.86;100019.50;4988637;28;20022;-69
2022/06/29 07:20:45;;;;;;;4.40;2.47;;;;;;;30.01;49.71;100011.72;4990232;28;20057;-69
2022/06/29 07:23:10;;;;;;;13.85;2.88;;;;;;;30.01;49.22;100013.59;4991302;28;20045;-69
2022/06/29 07:25:36;;;;;;;6.05;3.33;;;;;;;29.99;49.46;100011.22;4988250;28;20040;-69
2022/06/29 07:28:02;;;;;;;9.88;2.97;;;;;;;29.99;49.05;100013.88;4989337;28;20027;-69
2022/06/29 07:30:27;;;;;;;5.15;2.80;;;;;;;29.99;49.54;100005.00;5003173;28;20037;-69
2022/06/29 07:32:53;;;;;;;3.90;2.55;;;;;;;29.99;49.32;100011.22;5010098;28;20030;-69
2022/06/29 07:35:18;;;;;;;5.50;3.45;;;;;;;29.99;49.14;100003.16;5006353;28;20041;-68
2022/06/29 07:37:44;;;;;;;4.15;2.42;;;;;;;29.98;49.52;100006.88;5009713;28;20440;-69
2022/06/29 07:40:10;;;;;;;4.28;3.25;;;;;;;29.96;49.44;100008.25;4996923;28;20038;-69
2022/06/29 07:42:36;;;;;;;6.22;3.38;;;;;;;29.93;49.33;100008.81;4989997;28;20585;-69
2022/06/29 07:45:05;;;;;;;11.40;2.85;;;;;;;29.92;49.88;100008.03;4988704;28;20048;-69
2022/06/29 07:47:32;;;;;;;6.70;3.00;;;;;;;29.93;49.58;100012.31;5009566;28;20238;-68
2022/06/29 07:49:58;;;;;;;5.70;2.97;;;;;;;29.91;49.66;100009.09;5003345;28;20490;-69
2022/06/29 07:52:23;;;;;;;7.35;2.95;;;;;;;29.89;49.79;100008.59;4990120;28;20026;-69
2022/06/29 07:54:49;;;;;;;7.45;3.50;;;;;;;29.85;49.51;99996.81;4998668;28;20034;-70
2022/06/29 07:57:14;;;;;;;9.80;3.05;;;;;;;29.84;49.49;99997.09;4989893;28;20040;-70
2022/06/29 07:59:39;;;;;;;8.40;3.15;;;;;;;29.81;49.41;100006.50;4989602;28;20027;-69
2022/06/29 08:02:05;;;;;;;5.30;3.28;;;;;;;29.83;49.28;100006.22;4989013;28;20070;-69
2022/06/29 08:04:30;;;;;;;6.70;3.17;;;;;;;29.81;49.75;100003.81;4988767;28;20043;-70
2022/06/29 08:06:56;;;;;;;12.77;3.78;;;;;;;29.80;49.93;100015.66;4989528;28;20042;-69
2022/06/29 08:09:23;;;;;;;13.05;3.40;;;;;;;29.81;50.36;100024.50;4989481;28;20034;-70
2022/06/29 08:11:50;;;;;;;20.30;4.10;;;;;;;29.79;50.69;100027.47;4994404;28;20462;-70
2022/06/29 08:14:16;;;;;;;15.50;3.47;;;;;;;29.77;51.34;100021.59;5009171;28;20030;-70
2022/06/29 08:16:41;;;;;;;18.83;4.32;;;;;;;29.77;51.61;100020.81;5007458;28;20058;-69
2022/06/29 08:19:07;;;;;;;16.35;4.43;;;;;;;29.77;51.50;100024.28;5001381;28;20217;-70
2022/06/29 08:21:32;;;;;;;17.27;4.40;;;;;;;29.80;51.67;100014.84;5004716;28;20110;-70
2022/06/29 08:23:58;;;;;;;20.27;4.82;;;;;;;29.80;51.56;100009.47;4992150;28;20121;-70
2022/06/29 08:26:23;;;;;;;19.33;4.72;;;;;;;29.80;51.92;100010.28;4986689;28;20022;-69
2022/06/29 08:28:48;;;;;;;15.13;3.63;;;;;;;29.80;51.97;100012.16;4989053;28;20034;-69
2022/06/29 08:31:14;;;;;;;22.27;4.38;;;;;;;29.81;51.59;100014.56;4988380;28;20026;-69
2022/06/29 08:33:39;;;;;;;19.45;4.53;;;;;;;29.83;51.47;100007.03;4989332;28;20030;-70
2022/06/29 08:36:05;;;;;;;21.55;4.07;;;;;;;29.85;51.52;100014.81;4989761;28;20502;-69
2022/06/29 08:38:30;;;;;;;17.23;4.30;;;;;;;29.84;51.56;100016.69;5006136;28;20029;-69
2022/06/29 08:40:56;;;;;;;17.77;3.95;;;;;;;29.86;51.79;100021.78;4989761;28;20390;-70
2022/06/29 08:43:22;;;;;;;16.00;3.63;;;;;;;29.86;51.58;100011.84;4987670;28;20193;-69
2022/06/29 08:45:49;;;;;;;16.33;3.30;;;;;;;29.88;52.05;100011.56;4988091;28;20399;-71
2022/06/29 08:48:16;;;;;;;28.05;4.78;;;;;;;29.91;52.09;100019.03;4999956;28;20018;-70
2022/06/29 08:50:44;;;;;;;13.82;3.58;;;;;;;29.92;51.96;100017.97;5007332;28;20119;-70
2022/06/29 08:53:14;;;;;;;20.25;4.40;;;;;;;29.86;52.68;100025.25;5003301;28;20026;-71
2022/06/29 08:55:48;;;;;;;20.92;4.32;;;;;;;29.85;53.11;100023.66;5006640;28;20119;-70
2022/06/29 08:58:18;;;;;;;23.08;4.50;;;;;;;29.83;53.18;100025.03;4990692;28;20121;-70
2022/06/29 09:00:44;;;;;;;19.27;4.63;;;;;;;29.79;54.05;100024.78;4988082;28;20455;-70
2022/06/29 09:03:10;;;;;;;17.88;4.32;;;;;;;29.81;54.04;100017.25;4988919;28;20042;-70
2022/06/29 09:05:37;;;;;;;19.42;4.68;;;;;;;29.81;54.25;100021.81;4987360;28;20026;-70
2022/06/29 09:08:03;;;;;;;17.05;4.53;;;;;;;29.79;53.88;100022.09;4985727;28;20042;-71
2022/06/29 09:10:30;;;;;;;23.52;4.93;;;;;;;29.76;54.53;100033.44;4988328;28;20487;-71
2022/06/29 09:12:58;;;;;;;20.65;5.60;;;;;;;29.70;54.76;100024.63;4987607;28;20045;-71
2022/06/29 09:15:34;;;;;;;19.35;4.00;;;;;;;29.70;54.90;100023.81;4988746;28;20545;-71
2022/06/29 09:18:01;;;;;;;16.02;4.20;;;;;;;29.74;55.15;100022.16;4988817;28;20026;-71
2022/06/29 09:20:40;;;;;;;20.85;4.20;;;;;;;29.75;54.83;100023.78;4987457;28;20088;-70
2022/06/29 09:23:08;;;;;;;20.30;4.65;;;;;;;29.76;55.49;100021.88;4989378;28;20058;-70
2022/06/29 09:25:39;;;;;;;17.85;4.57;;;;;;;29.75;55.43;100018.41;4986285;28;20604;-70
2022/06/29 09:28:27;;;;;;;15.80;3.67;;;;;;;29.76;55.90;100024.56;4992967;28;20475;-70
2022/06/29 09:30:55;;;;;;;19.52;4.38;;;;;;;29.74;56.04;100019.47;4987366;28;20046;-70
2022/06/29 09:33:25;;;;;;;23.05;4.20;;;;;;;29.74;56.01;100027.53;5003913;28;20034;-71
2022/06/29 09:36:08;;;;;;;18.42;4.88;;;;;;;29.74;55.65;100016.00;5008412;28;20041;-70
2022/06/29 09:38:34;;;;;;;14.30;3.90;;;;;;;29.73;55.43;100019.75;4992617;28;20057;-70
2022/06/29 09:41:14;;;;;;;17.77;4.13;;;;;;;29.73;55.29;100017.09;4988651;28;20029;-70
2022/06/29 09:43:41;;;;;;;16.90;4.30;;;;;;;29.74;55.57;100018.69;4990560;28;20176;-70
2022/06/29 09:46:09;;;;;;;20.92;4.30;;;;;;;29.72;54.82;100018.97;4992256;28;20422;-70
2022/06/29 09:48:36;;;;;;;19.27;4.53;;;;;;;29.71;54.62;100014.69;4990402;28;20030;-70
2022/06/29 09:51:30;;;;;;;15.57;4.35;;;;;;;29.71;54.55;100012.78;4982611;28;20036;-71
2022/06/29 09:53:53;;;;;;;17.42;4.10;;;;;;;29.71;55.01;100014.69;4993584;28;20071;-71
2022/06/29 09:56:21;;;;;;;24.50;4.97;;;;;;;29.71;54.62;100020.84;4994182;28;20030;-71
2022/06/29 09:58:48;;;;;;;17.73;3.80;;;;;;;29.72;54.11;100010.91;5010034;28;20389;-71
2022/06/29 10:04:00;;;;;;;15.52;4.13;;;;;;;29.74;54.12;100000.69;5012081;28;20500;-70
2022/06/29 10:06:26;;;;;;;25.38;5.40;;;;;;;29.73;54.08;100017.88;5010499;28;20192;-70
2022/06/29 10:08:52;;;;;;;19.33;4.50;;;;;;;29.73;54.26;100012.50;4992487;28;20248;-71
2022/06/29 10:14:45;;;;;;;18.73;4.85;;;;;;;29.72;53.97;100016.28;4995737;28;20049;-70
2022/06/29 10:17:29;;;;;;;16.55;3.78;;;;;;;29.70;54.04;100018.44;4991973;28;20045;-70
2022/06/29 10:20:06;;;;;;;12.50;3.20;;;;;;;29.72;53.20;100010.91;4994037;28;20045;-71
2022/06/29 10:22:31;;;;;;;20.00;4.25;;;;;;;29.72;52.90;100016.28;5011679;28;20399;-70
2022/06/29 10:25:09;;;;;;;13.23;3.35;;;;;;;29.70;53.05;100011.19;5011043;28;20050;-71
2022/06/29 10:27:34;;;;;;;16.58;3.45;;;;;;;29.71;53.04;100012.00;4980175;28;20064;-70
2022/06/29 10:30:29;;;;;;;18.10;3.53;;;;;;;29.69;52.08;100014.97;5003749;28;20022;-70
2022/06/29 10:33:31;;;;;;;12.73;3.22;;;;;;;29.66;51.51;100012.84;4966077;28;20172;-71
2022/06/29 10:36:08;;;;;;;18.23;4.15;;;;;;;29.67;51.09;100008.28;5010589;28;20034;-71
2022/06/29 10:39:03;;;;;;;12.65;2.20;;;;;;;29.67;51.50;100013.63;5011431;28;20121;-70
2022/06/29 10:44:59;;;;;;;16.02;2.95;;;;;;;29.66;51.65;100033.50;5003323;28;20096;-70
2022/06/29 10:47:25;;;;;;;17.73;3.63;;;;;;;29.68;51.61;100031.34;4972233;28;20027;-70
2022/06/29 10:50:13;;;;;;;15.85;3.17;;;;;;;29.65;51.24;100034.59;4974512;28;20038;-71
2022/06/29 10:52:39;;;;;;;14.45;2.83;;;;;;;29.64;50.93;100030.31;4970799;28;20090;-71
2022/06/29 10:55:06;;;;;;;22.33;3.45;;;;;;;29.64;50.27;100038.34;5010339;28;20025;-70
2022/06/29 10:57:36;;;;;;;14.80;2.83;;;;;;;29.63;50.15;100047.50;5011294;28;20037;-70
2022/06/29 11:00:06;;;;;;;11.73;2.50;;;;;;;29.64;50.50;100051.78;4991846;28;20050;-71
2022/06/29 11:02:31;;;;;;;13.90;2.90;;;;;;;29.65;50.26;100054.19;4990355;28;20030;-70
2022/06/29 11:04:58;;;;;;;12.35;2.28;;;;;;;29.68;50.42;100063.56;4995917;28;20037;-70
2022/06/29 11:12:53;;;;;;;15.50;3.20;;;;;;;29.62;50.01;100056.63;4991401;28;20120;-70
2022/06/29 11:15:47;;;;;;;14.70;3.17;;;;;;;29.63;49.76;100063.59;5001364;28;20036;-71
2022/06/29 11:18:29;;;;;;;12.70;2.58;;;;;;;29.63;49.61;100067.09;4995532;28;20108;-71
2022/06/29 11:21:02;;;;;;;13.82;2.53;;;;;;;29.62;49.36;100067.34;5004795;28;20038;-71
2022/06/29 11:23:29;;;;;;;14.20;2.35;;;;;;;29.62;48.82;100070.84;5008768;28;20114;-70
2022/06/29 11:25:55;;;;;;;12.75;1.83;;;;;;;29.62;48.08;100078.91;5008204;28;20550;-70
2022/06/29 11:28:25;;;;;;;9.35;1.83;;;;;;;29.59;48.55;100076.78;4990599;28;20037;-70
2022/06/29 11:31:07;;;;;;;14.77;2.13;;;;;;;29.59;48.49;100081.34;4994024;28;20562;-70
2022/06/29 11:33:36;;;;;;;10.27;2.25;;;;;;;29.60;49.32;100083.75;4990649;28;20026;-70
2022/06/29 11:36:10;;;;;;;12.52;1.83;;;;;;;29.60;49.49;100081.06;4990418;28;20117;-70
2022/06/29 11:38:40;;;;;;;18.20;2.38;;;;;;;29.61;49.19;100082.66;4989237;28;20122;-70
2022/06/29 11:41:17;;;;;;;8.32;1.75;;;;;;;29.62;48.79;100091.53;5004348;28;20041;-70
2022/06/29 11:43:43;;;;;;;12.20;1.65;;;;;;;29.61;48.47;100090.72;5010488;28;20409;-70
2022/06/29 11:46:19;;;;;;;6.63;1.67;;;;;;;29.60;48.52;100099.03;4996609;28;20034;-70
2022/06/29 11:51:33;;;;;;;10.10;2.05;;;;;;;29.60;48.44;100085.63;5002158;28;20060;-70